Weather at Hmeimim Air Base

Public forecast

Using degrees Celsius for public forecast. Weather courtesy of forecast.io.

Current aviation weather report (METAR) for Hmeimim Air Base

2024/06/18 17:00 (retrieved 43 minutes ago)

OSLK 181700Z 25004KT CAVOK 27/20 Q1008

Aviation forecast (TAF) for Hmeimim Air Base

Forecast is more than 6 hours old.

2024/06/18 06:00 (retrieved 12 hours ago)

TAF OSLK 180500Z 1806/1906 27012KT CAVOK TEMPO 1818/1906 03006KT